Nearby METAR Reports

Actuele Vliegveldwaarnemingen NL (METAR).Zie KNMI uitleg METAR hier

EHAM - Amsterdam/Schiph, Netherlands
Distance from station: ONO 18km
Updated: 17/04/2021 15:55
Few Clouds
Few Clouds
 Wind van N
Wind: N 17 km/h
Temperatuur: 10°C
Wind Chill: 8°C
Dauwpunt: 1°C
Vochtigheid: 54%
Barometer: 1026 hPa
Clouds: Few Clouds
Visibility: 10 km
Cloud details: Few Clouds 1341 m
2021/04/17 13:55 EHAM 171355Z 01009KT 340V050 9999 FEW044 10/01 Q1026 NOSIG
EHKD - DE KOOY/DE KOOY
Updated: 17/04/2021 15:55
Helder
Helder
 Wind van NNO
Wind: NNO 19 km/h
Temperatuur: 9°C
Wind Chill: 6°C
Dauwpunt: 2°C
Vochtigheid: 62%
Barometer: 1026 hPa
Clouds: Helder
Visibility: 10 km
2021/04/17 13:55 EHKD 171355Z AUTO 03010KT 360V080 9999 NCD 09/02 Q1026 BLU NOSIG
 
EHLW - LEEUWARDEN/LEEUWARDEN
Updated: 17/04/2021 15:55
Helder
Helder
 Wind van N
Wind: N 19 km/h
Temperatuur: 10°C
Wind Chill: 7°C
Dauwpunt: 1°C
Vochtigheid: 54%
Barometer: 1026 hPa
Clouds: Helder
Visibility: 10 km
2021/04/17 13:55 EHLW 171355Z AUTO 01010KT 310V040 9999 NCD 10/01 Q1026 BLU
EHVK - VOLKEL/VOLKEL
Updated: 17/04/2021 15:55
Meestal bewolkt
Meestal bewolkt
 Wind van NNW
Wind: NNW 9 km/h
Temperatuur: 13°C
Dauwpunt: 1°C
Vochtigheid: 44%
Barometer: 1024 hPa
Clouds: Meestal bewolkt
Visibility: 10 km
Cloud details: Meestal bewolkt 1585 m
2021/04/17 13:55 EHVK 171355Z AUTO 34005KT 360V060 9999 BKN052 13/01 Q1024 BLU
 
EHFS - VLISSINGEN
Updated: 17/04/2021 15:55
Few Clouds
Few Clouds
 Wind van N
Wind: N 24 km/h
Temperatuur: 10°C
Wind Chill: 7°C
Dauwpunt: 2°C
Vochtigheid: 58%
Barometer: 1026 hPa
Clouds: Few Clouds
Visibility: 10 km
Cloud details: Few Clouds 1006 m
2021/04/17 13:55 EHFS 171355Z AUTO 01013KT 340V050 9999 FEW033/// 10/02 Q1026
EHEH - EINDHOVEN/EINDHOVEN
Updated: 17/04/2021 15:55
Helder
Helder
 Wind van N
Wind: N 15 km/h
Temperatuur: 13°C
Dauwpunt: 0°C
Vochtigheid: 41%
Barometer: 1024 hPa
Clouds: Helder
Visibility: 10 km
2021/04/17 13:55 EHEH 171355Z AUTO 35008KT 300V050 9999 NCD 13/00 Q1024 BLU NOSIG
 
EHGR - GILZE-RIJEN/GILZE-RIJEN
Updated: 17/04/2021 15:55
Meestal bewolkt
Meestal bewolkt
 Wind van N
Wind: N 17 km/h
Temperatuur: 12°C
Dauwpunt: 1°C
Vochtigheid: 47%
Barometer: 1025 hPa
Clouds: Meestal bewolkt
Visibility: 10 km
Cloud details: Meestal bewolkt 1494 m
2021/04/17 13:55 EHGR 171355Z AUTO 36009KT 300V070 9999 BKN049 12/01 Q1025 BLU
EHDL - ARNHEM/DEELEN
Updated: 17/04/2021 15:55
Meestal bewolkt
Meestal bewolkt
 Wind van N
Wind: N 19 km/h
Temperatuur: 12°C
Dauwpunt: 1°C
Vochtigheid: 47%
Barometer: 1024 hPa
Clouds: Meestal bewolkt
Visibility: 10 km
Cloud details: Meestal bewolkt 1433 m
2021/04/17 13:55 EHDL 171355Z AUTO 01010KT 310V050 9999 BKN047 12/01 Q1024 BLU
 
EHBK - MAASTRICHT/MAASTRICHT-AACHEN
Updated: 17/04/2021 15:55
Gedeeltelijk bewolkt
Gedeeltelijk bewolkt
 Wind van N
Wind: N 17 km/h
Temperatuur: 12°C
Dauwpunt: 0°C
Vochtigheid: 44%
Barometer: 1023 hPa
Clouds: Gedeeltelijk bewolkt
Visibility: 10 km
2021/04/17 13:55 EHBK 171355Z AUTO 35009KT 290V050 9999 NSC 12/00 Q1023 NOSIG